New Vernon, NJ (07976)

7:08 PM EST on November 20, 2014 (GMT -0500)
Mt Kemble Lake | Change Station
CLOSE
Current Station
Personal Weather Station
Location: Harding Township, NJ
Elevation: 380 ft
Nearby Weather Stations

Elev 380 ft 40.75 °N, 74.52 °W | Updated 4 seconds ago

Clear
Clear
35.0 °F
Feels Like 30 °F
N
6.0
Wind Variable Wind from SSE
Gusts 9.0 mph

Today
High -- | Low -- °F
--% Chance of Precip.
Yesterday
High -- | Low -- °F
Precip. -- in
6:50 AM 4:36 PM
Waning Crescent, 3% visible
Pressure 29.94 in
Visibility 10.0 miles
Clouds Clear
Windchill 30 °F
Dew Point 12 °F
Humidity 38%
Rainfall 0.00 in
Snow Depth Not available.
UV 0 out of 12
Pollen .10 out of 12
Air Quality Not available.
Flu Activity Not available.
METAR KMMU 202345Z 28010G16KT 10SM SKC 03/M12 A2994

More Conditions Fewer Conditions

Pressure 29.94 in
Visibility 10.0 miles
Clouds Clear
Windchill 30 °F
Dew Point 12 °F
Humidity 38%
Rainfall 0.00 in
Snow Depth Not available.
UV 0 out of 12
Pollen .10 out of 12
Air Quality Not available.
Flu Activity Not available.
METAR KMMU 202345Z 28010G16KT 10SM SKC 03/M12 A2994

More Conditions Fewer Conditions

10-Day Weather Forecast

Almanac

Astronomy

Nov. 20, 2014 Rise Set
Actual Time
Civil Twilight
Nautical Twilight
Astronomical Twilight
Moon
Length of Visible Light
Length of Day
Tomorrow will be .
, % of the Moon is Illuminated

Today's Extremes

State Highs State Lows

Community

WunderPhotos

Upload Photos

1,772,554 photos uploaded!

WunderBlogs® & News

Nearby

Air Quality

  Air Quality AQ Index Pollutant
Not available.

Snow Depth

Station Depth Elevation

Earthquake Activity

City Distance Mag. Time & Date
Minimum magnitude displayed is 2.5.

Coastal Water Temperatures

Place Temperature

Nearby Weather Stations